createdAt,value
2019-02-28T00:00:50.061Z,1010.86
2019-02-28T00:01:50.056Z,1010.86
2019-02-28T00:02:50.062Z,1010.85
2019-02-28T00:03:50.045Z,1010.84
2019-02-28T00:04:50.018Z,1010.83
2019-02-28T00:05:50.014Z,1010.84
2019-02-28T00:06:49.995Z,1010.82
2019-02-28T00:07:50.548Z,1010.82
2019-02-28T00:08:50.995Z,1010.80
2019-02-28T00:09:49.960Z,1010.81
2019-02-28T00:10:49.987Z,1010.78
2019-02-28T00:11:49.958Z,1010.76
2019-02-28T00:12:49.931Z,1010.79
2019-02-28T00:13:52.319Z,1010.78
2019-02-28T00:14:50.909Z,1010.74
2019-02-28T00:15:49.906Z,1010.74
2019-02-28T00:16:49.912Z,1010.67
2019-02-28T00:17:49.901Z,1010.66
2019-02-28T00:18:50.632Z,1010.62
2019-02-28T00:20:51.319Z,1010.69
2019-02-28T00:21:49.926Z,1010.69
2019-02-28T00:22:49.835Z,1010.65
2019-02-28T00:23:49.849Z,1010.65
2019-02-28T00:24:49.813Z,1010.63
2019-02-28T00:25:49.811Z,1010.61
2019-02-28T00:26:49.875Z,1010.63
2019-02-28T00:27:52.677Z,1010.52
2019-02-28T00:28:49.801Z,1010.59
2019-02-28T00:29:49.759Z,1010.53
2019-02-28T00:30:49.750Z,1010.49
2019-02-28T00:31:50.711Z,1010.50
2019-02-28T00:32:49.720Z,1010.46
2019-02-28T00:33:49.768Z,1010.43
2019-02-28T00:34:49.707Z,1010.42
2019-02-28T00:35:49.688Z,1010.38
2019-02-28T00:36:50.465Z,1010.45
2019-02-28T00:37:49.681Z,1010.37
2019-02-28T00:38:49.696Z,1010.34
2019-02-28T00:39:49.655Z,1010.33
2019-02-28T00:40:49.629Z,1010.27
2019-02-28T00:41:49.621Z,1010.25
2019-02-28T00:42:50.887Z,1010.25
2019-02-28T00:43:49.635Z,1010.21
2019-02-28T00:45:50.708Z,1010.25
2019-02-28T00:46:49.572Z,1010.25
2019-02-28T00:47:49.562Z,1010.21
2019-02-28T00:48:53.022Z,1010.26
2019-02-28T00:49:49.558Z,1010.20
2019-02-28T00:50:49.524Z,1010.16
2019-02-28T00:51:49.528Z,1010.15
2019-02-28T00:52:49.510Z,1010.12
2019-02-28T00:53:49.490Z,1010.06
2019-02-28T00:54:49.537Z,1010.04
2019-02-28T00:55:49.511Z,1010.07
2019-02-28T00:56:52.513Z,1010.06
2019-02-28T00:57:49.445Z,1009.97
2019-02-28T00:58:49.512Z,1010.01
2019-02-28T00:59:49.793Z,1009.96
2019-02-28T01:00:49.445Z,1009.93
2019-02-28T01:01:49.412Z,1009.94
2019-02-28T01:02:53.483Z,1009.97
2019-02-28T01:03:49.396Z,1009.93
2019-02-28T01:04:49.421Z,1009.94
2019-02-28T01:05:49.386Z,1009.94
2019-02-28T01:06:49.387Z,1009.90
2019-02-28T01:07:49.345Z,1009.91
2019-02-28T01:08:49.390Z,1009.94
2019-02-28T01:09:49.798Z,1009.91
2019-02-28T01:10:49.313Z,1009.88
2019-02-28T01:11:49.309Z,1009.80
2019-02-28T01:12:53.253Z,1009.84
2019-02-28T01:13:49.337Z,1009.80
2019-02-28T01:14:49.348Z,1009.83
2019-02-28T01:15:50.256Z,1009.77
2019-02-28T01:16:50.266Z,1009.79
2019-02-28T01:17:49.279Z,1009.76
2019-02-28T01:18:49.239Z,1009.73
2019-02-28T01:19:49.263Z,1009.67
2019-02-28T01:20:50.728Z,1009.70
2019-02-28T01:21:49.194Z,1009.70
2019-02-28T01:22:49.181Z,1009.60
2019-02-28T01:23:49.188Z,1009.59
2019-02-28T01:24:49.187Z,1009.51
2019-02-28T01:25:49.154Z,1009.55
2019-02-28T01:26:49.143Z,1009.53
2019-02-28T01:27:49.146Z,1009.55
2019-02-28T01:28:49.120Z,1009.56
2019-02-28T01:29:49.136Z,1009.48
2019-02-28T01:30:49.120Z,1009.46
2019-02-28T01:31:49.168Z,1009.47
2019-02-28T01:32:50.920Z,1009.45
2019-02-28T01:33:49.118Z,1009.43
2019-02-28T01:34:49.074Z,1009.40
2019-02-28T01:35:49.202Z,1009.39
2019-02-28T01:36:49.606Z,1009.34
2019-02-28T01:37:49.090Z,1009.37
2019-02-28T01:38:49.010Z,1009.42
2019-02-28T01:39:49.047Z,1009.37
2019-02-28T01:40:49.012Z,1009.33
2019-02-28T01:41:48.991Z,1009.28
2019-02-28T01:42:54.095Z,1009.31
2019-02-28T01:43:49.040Z,1009.30
2019-02-28T01:44:48.977Z,1009.33
2019-02-28T01:45:49.237Z,1009.32
2019-02-28T01:46:49.395Z,1009.23
2019-02-28T01:47:51.760Z,1009.28
2019-02-28T01:48:48.912Z,1009.30
2019-02-28T01:49:48.889Z,1009.27
2019-02-28T01:50:48.911Z,1009.28
2019-02-28T01:51:48.883Z,1009.23
2019-02-28T01:52:48.877Z,1009.28
2019-02-28T01:53:50.421Z,1009.20
2019-02-28T01:54:48.843Z,1009.27
2019-02-28T01:55:48.854Z,1009.13
2019-02-28T01:56:48.816Z,1009.21
2019-02-28T01:57:48.811Z,1009.20
2019-02-28T01:58:50.364Z,1009.11
2019-02-28T01:59:48.792Z,1009.12
2019-02-28T02:00:48.806Z,1009.06
2019-02-28T02:01:48.762Z,1009.06
2019-02-28T02:02:48.755Z,1009.08
2019-02-28T02:03:48.805Z,1009.08
2019-02-28T02:04:48.747Z,1009.00
2019-02-28T02:05:51.852Z,1008.99
2019-02-28T02:06:48.733Z,1009.02
2019-02-28T02:07:48.696Z,1008.99
2019-02-28T02:08:48.696Z,1008.91
2019-02-28T02:09:48.690Z,1008.99
2019-02-28T02:10:48.696Z,1009.03
2019-02-28T02:11:48.660Z,1008.99
2019-02-28T02:12:48.656Z,1008.95
2019-02-28T02:13:48.635Z,1008.91
2019-02-28T02:14:48.623Z,1008.88
2019-02-28T02:15:51.236Z,1008.90
2019-02-28T02:16:48.603Z,1008.93
2019-02-28T02:17:48.597Z,1008.94
2019-02-28T02:18:48.583Z,1008.97
2019-02-28T02:19:49.372Z,1009.03
2019-02-28T02:20:48.590Z,1008.95
2019-02-28T02:21:48.551Z,1008.99
2019-02-28T02:22:48.553Z,1008.97
2019-02-28T02:23:49.627Z,1008.97
2019-02-28T02:24:48.519Z,1008.95
2019-02-28T02:25:48.523Z,1008.89
2019-02-28T02:26:48.500Z,1008.92
2019-02-28T02:27:52.952Z,1008.91
2019-02-28T02:28:48.509Z,1008.89
2019-02-28T02:29:48.464Z,1008.92
2019-02-28T02:30:50.919Z,1008.86
2019-02-28T02:31:48.478Z,1008.86
2019-02-28T02:32:48.576Z,1008.90
2019-02-28T02:33:52.414Z,1008.91
2019-02-28T02:34:48.435Z,1008.85
2019-02-28T02:35:48.402Z,1008.85
2019-02-28T02:36:53.000Z,1008.88
2019-02-28T02:38:10.399Z,1008.82
2019-02-28T02:39:16.372Z,1008.84
2019-02-28T02:39:50.442Z,1008.75
2019-02-28T02:41:12.304Z,1008.77
2019-02-28T02:41:48.337Z,1008.81
2019-02-28T02:42:50.027Z,1008.78
2019-02-28T02:43:48.325Z,1008.74
2019-02-28T02:44:48.333Z,1008.69
2019-02-28T02:45:48.316Z,1008.65
2019-02-28T02:46:52.152Z,1008.63
2019-02-28T02:47:49.285Z,1008.56
2019-02-28T02:48:48.286Z,1008.63
2019-02-28T02:49:55.988Z,1008.60
2019-02-28T02:51:50.568Z,1008.57
2019-02-28T02:52:48.218Z,1008.51
2019-02-28T02:53:48.221Z,1008.49
2019-02-28T02:54:52.055Z,1008.45
2019-02-28T02:55:48.201Z,1008.46
2019-02-28T02:57:51.703Z,1008.45
2019-02-28T02:58:48.446Z,1008.38
2019-02-28T02:59:48.387Z,1008.37
2019-02-28T03:00:51.165Z,1008.33
2019-02-28T03:01:48.471Z,1008.37
2019-02-28T03:02:48.433Z,1008.33
2019-02-28T03:03:48.107Z,1008.43
2019-02-28T03:04:48.087Z,1008.38
2019-02-28T03:05:48.081Z,1008.42
2019-02-28T03:06:48.177Z,1008.35
2019-02-28T03:07:48.085Z,1008.33
2019-02-28T03:08:48.091Z,1008.33
2019-02-28T03:09:48.033Z,1008.29
2019-02-28T03:10:51.815Z,1008.31
2019-02-28T03:11:49.123Z,1008.34
2019-02-28T03:12:48.131Z,1008.33
2019-02-28T03:13:48.029Z,1008.33
2019-02-28T03:14:48.985Z,1008.28
2019-02-28T03:15:48.018Z,1008.31
2019-02-28T03:16:47.959Z,1008.26
2019-02-28T03:17:48.736Z,1008.26
2019-02-28T03:18:47.949Z,1008.23
2019-02-28T03:19:47.949Z,1008.28
2019-02-28T03:20:47.957Z,1008.25
2019-02-28T03:21:52.610Z,1008.26
2019-02-28T03:22:48.938Z,1008.18
2019-02-28T03:23:47.903Z,1008.21
2019-02-28T03:24:51.028Z,1008.25
2019-02-28T03:25:47.899Z,1008.29
2019-02-28T03:26:47.903Z,1008.27
2019-02-28T03:27:55.057Z,1008.22
2019-02-28T03:28:48.854Z,1008.22
2019-02-28T03:29:47.857Z,1008.24
2019-02-28T03:30:47.818Z,1008.22
2019-02-28T03:31:54.901Z,1008.21
2019-02-28T03:32:48.807Z,1008.21
2019-02-28T03:33:47.789Z,1008.22
2019-02-28T03:34:55.222Z,1008.21
2019-02-28T03:36:55.153Z,1008.17
2019-02-28T03:38:49.837Z,1008.12
2019-02-28T03:39:47.724Z,1008.10
2019-02-28T03:40:47.704Z,1008.12
2019-02-28T03:41:49.024Z,1008.13
2019-02-28T03:42:48.726Z,1008.14
2019-02-28T03:43:47.698Z,1008.06
2019-02-28T03:44:47.658Z,1008.07
2019-02-28T03:45:47.662Z,1008.01
2019-02-28T03:46:47.922Z,1008.07
2019-02-28T03:47:47.676Z,1008.03
2019-02-28T03:48:47.635Z,1008.02
2019-02-28T03:49:49.853Z,1008.03
2019-02-28T03:50:47.596Z,1007.95
2019-02-28T03:51:47.603Z,1008.07
2019-02-28T03:52:47.830Z,1008.03
2019-02-28T03:53:47.574Z,1007.99
2019-02-28T03:54:47.589Z,1007.96
2019-02-28T03:55:47.542Z,1007.99
2019-02-28T03:56:52.719Z,1007.93
2019-02-28T03:57:48.571Z,1007.94
2019-02-28T03:58:47.545Z,1007.95
2019-02-28T03:59:55.484Z,1007.87
2019-02-28T04:00:48.522Z,1007.88
2019-02-28T04:02:52.784Z,1007.82
2019-02-28T04:03:49.305Z,1007.89
2019-02-28T04:04:50.233Z,1007.84
2019-02-28T04:05:47.649Z,1007.79
2019-02-28T04:06:47.859Z,1007.84
2019-02-28T04:07:52.255Z,1007.87
2019-02-28T04:08:48.441Z,1007.82
2019-02-28T04:09:47.409Z,1007.75
2019-02-28T04:10:47.433Z,1007.81
2019-02-28T04:11:47.396Z,1007.84
2019-02-28T04:12:47.428Z,1007.84
2019-02-28T04:13:47.406Z,1007.83
2019-02-28T04:14:47.349Z,1007.76
2019-02-28T04:16:07.746Z,1007.86
2019-02-28T04:16:52.714Z,1007.82
2019-02-28T04:17:48.311Z,1007.83
2019-02-28T04:18:47.361Z,1007.79
2019-02-28T04:19:47.292Z,1007.73
2019-02-28T04:20:47.299Z,1007.73
2019-02-28T04:21:47.873Z,1007.64
2019-02-28T04:22:47.261Z,1007.65
2019-02-28T04:23:47.267Z,1007.63
2019-02-28T04:24:47.738Z,1007.64
2019-02-28T04:25:47.277Z,1007.61
2019-02-28T04:26:47.216Z,1007.63
2019-02-28T04:27:47.294Z,1007.70
2019-02-28T04:28:53.515Z,1007.56
2019-02-28T04:29:48.190Z,1007.65
2019-02-28T04:30:47.170Z,1007.66
2019-02-28T04:31:47.162Z,1007.60
2019-02-28T04:32:47.163Z,1007.58
2019-02-28T04:33:47.195Z,1007.61
2019-02-28T04:34:49.245Z,1007.56
2019-02-28T04:35:47.138Z,1007.57
2019-02-28T04:36:47.184Z,1007.56
2019-02-28T04:37:47.429Z,1007.47
2019-02-28T04:38:47.222Z,1007.50
2019-02-28T04:39:47.166Z,1007.46
2019-02-28T04:40:47.086Z,1007.40
2019-02-28T04:41:47.070Z,1007.42
2019-02-28T04:42:47.112Z,1007.41
2019-02-28T04:43:47.152Z,1007.38
2019-02-28T04:44:49.234Z,1007.38
2019-02-28T04:45:47.018Z,1007.26
2019-02-28T04:46:47.020Z,1007.31
2019-02-28T04:47:46.984Z,1007.35
2019-02-28T04:48:48.412Z,1007.26
2019-02-28T04:49:46.990Z,1007.27
2019-02-28T04:50:46.964Z,1007.24
2019-02-28T04:51:46.961Z,1007.22
2019-02-28T04:52:48.207Z,1007.17
2019-02-28T04:53:46.953Z,1007.13
2019-02-28T04:54:46.912Z,1007.20
2019-02-28T04:55:46.960Z,1007.17
2019-02-28T04:56:47.006Z,1007.18
2019-02-28T04:57:46.922Z,1007.17
2019-02-28T04:58:46.918Z,1007.22
2019-02-28T04:59:46.858Z,1007.21
2019-02-28T05:00:46.850Z,1007.21
2019-02-28T05:01:46.852Z,1007.22
2019-02-28T05:02:46.855Z,1007.19
2019-02-28T05:03:46.916Z,1007.14
2019-02-28T05:04:46.828Z,1007.19
2019-02-28T05:05:47.600Z,1007.07
2019-02-28T05:06:46.790Z,1007.08
2019-02-28T05:07:46.784Z,1007.05
2019-02-28T05:08:46.880Z,1007.10
2019-02-28T05:09:48.074Z,1007.08
2019-02-28T05:10:46.762Z,1007.04
2019-02-28T05:11:46.799Z,1007.08
2019-02-28T05:12:46.730Z,1007.04
2019-02-28T05:13:48.759Z,1007.05
2019-02-28T05:14:46.726Z,1007.10
2019-02-28T05:15:46.720Z,1007.04
2019-02-28T05:16:47.508Z,1007.12
2019-02-28T05:17:46.677Z,1007.09
2019-02-28T05:18:46.739Z,1007.07
2019-02-28T05:19:46.676Z,1007.08
2019-02-28T05:20:46.651Z,1007.07
2019-02-28T05:21:46.656Z,1007.10
2019-02-28T05:22:46.613Z,1007.12
2019-02-28T05:23:46.611Z,1007.14
2019-02-28T05:24:46.642Z,1007.17
2019-02-28T05:25:49.130Z,1007.13
2019-02-28T05:26:47.578Z,1007.14
2019-02-28T05:27:46.587Z,1007.10
2019-02-28T05:28:46.568Z,1007.09
2019-02-28T05:29:46.600Z,1007.09
2019-02-28T05:30:46.590Z,1007.08
2019-02-28T05:31:46.520Z,1007.09
2019-02-28T05:32:46.514Z,1007.06
2019-02-28T05:33:46.536Z,1007.09
2019-02-28T05:34:47.381Z,1007.12
2019-02-28T05:35:46.476Z,1007.12
2019-02-28T05:36:46.488Z,1007.17
2019-02-28T05:37:48.164Z,1007.10
2019-02-28T05:38:46.460Z,1007.05
2019-02-28T05:39:46.474Z,1007.09
2019-02-28T05:40:46.427Z,1007.05
2019-02-28T05:41:49.315Z,1007.02
2019-02-28T05:42:46.432Z,1006.97
2019-02-28T05:43:46.399Z,1006.99
2019-02-28T05:44:46.439Z,1007.00
2019-02-28T05:45:49.678Z,1006.97
2019-02-28T05:46:46.402Z,1006.88
2019-02-28T05:47:47.466Z,1006.86
2019-02-28T05:48:46.425Z,1006.84
2019-02-28T05:49:46.559Z,1006.86
2019-02-28T05:50:46.939Z,1006.83
2019-02-28T05:51:46.325Z,1006.81
2019-02-28T05:52:46.311Z,1006.79
2019-02-28T05:53:46.300Z,1006.90
2019-02-28T05:54:47.330Z,1006.86
2019-02-28T05:55:46.264Z,1006.81
2019-02-28T05:56:46.268Z,1006.86
2019-02-28T05:57:54.856Z,1006.82
2019-02-28T05:58:46.239Z,1006.79
2019-02-28T05:59:46.282Z,1006.83
2019-02-28T06:00:46.208Z,1006.81
2019-02-28T06:01:47.094Z,1006.90
2019-02-28T06:02:46.207Z,1006.93
2019-02-28T06:03:46.187Z,1006.93
2019-02-28T06:04:46.234Z,1006.89
2019-02-28T06:05:46.455Z,1006.85
2019-02-28T06:06:46.177Z,1006.91
2019-02-28T06:07:55.406Z,1006.90
2019-02-28T06:08:55.424Z,1006.91
2019-02-28T06:09:48.731Z,1006.92
2019-02-28T06:10:46.182Z,1006.88
2019-02-28T06:11:46.096Z,1006.94
2019-02-28T06:12:46.100Z,1007.01
2019-02-28T06:13:46.134Z,1007.03
2019-02-28T06:14:54.951Z,1007.02
2019-02-28T06:15:54.423Z,1007.12
2019-02-28T06:16:54.508Z,1007.08
2019-02-28T06:17:46.052Z,1007.07
2019-02-28T06:18:46.030Z,1007.04
2019-02-28T06:19:46.012Z,1007.06
2019-02-28T06:20:51.052Z,1007.13
2019-02-28T06:21:46.997Z,1007.15
2019-02-28T06:22:46.062Z,1007.20
2019-02-28T06:23:54.550Z,1007.22
2019-02-28T06:24:45.996Z,1007.18
2019-02-28T06:25:45.995Z,1007.23
2019-02-28T06:26:56.962Z,1007.17
2019-02-28T06:27:54.634Z,1007.29
2019-02-28T06:30:27.884Z,1007.30
2019-02-28T06:31:27.749Z,1007.25
2019-02-28T06:32:27.585Z,1007.23
2019-02-28T06:33:30.591Z,1007.24
2019-02-28T06:34:28.562Z,1007.19
2019-02-28T06:35:27.581Z,1007.16
2019-02-28T06:36:29.165Z,1007.18
2019-02-28T06:37:27.543Z,1007.17
2019-02-28T06:38:27.550Z,1007.18
2019-02-28T06:39:27.716Z,1007.18
2019-02-28T06:40:32.799Z,1007.18
2019-02-28T06:41:28.493Z,1007.27
2019-02-28T06:42:27.502Z,1007.26
2019-02-28T06:43:27.466Z,1007.27
2019-02-28T06:44:27.776Z,1007.27
2019-02-28T06:45:27.411Z,1007.31
2019-02-28T06:46:27.459Z,1007.24
2019-02-28T06:47:27.395Z,1007.30
2019-02-28T06:48:27.423Z,1007.27
2019-02-28T06:49:27.435Z,1007.26
2019-02-28T06:50:27.369Z,1007.25
2019-02-28T06:51:27.397Z,1007.21
2019-02-28T06:52:27.380Z,1007.23
2019-02-28T06:53:27.341Z,1007.26
2019-02-28T06:54:27.314Z,1007.29
2019-02-28T06:55:27.321Z,1007.31
2019-02-28T06:56:27.325Z,1007.30
2019-02-28T06:57:27.578Z,1007.31
2019-02-28T06:58:27.270Z,1007.34
2019-02-28T06:59:27.276Z,1007.33
2019-02-28T07:00:27.278Z,1007.24
2019-02-28T07:01:29.474Z,1007.20
2019-02-28T07:02:28.480Z,1007.22
2019-02-28T07:03:27.221Z,1007.19
2019-02-28T07:04:27.225Z,1007.25
2019-02-28T07:05:27.226Z,1007.12
2019-02-28T07:06:27.223Z,1007.10
2019-02-28T07:07:27.182Z,1007.07
2019-02-28T07:08:28.973Z,1007.04
2019-02-28T07:10:28.202Z,1006.95
2019-02-28T07:11:27.213Z,1006.97
2019-02-28T07:12:29.792Z,1006.90
2019-02-28T07:13:27.119Z,1006.90
2019-02-28T07:14:27.105Z,1006.93
2019-02-28T07:15:27.096Z,1006.89
2019-02-28T07:16:27.085Z,1006.80
2019-02-28T07:17:27.102Z,1006.81
2019-02-28T07:18:27.057Z,1006.76
2019-02-28T07:19:27.114Z,1006.79
2019-02-28T07:20:27.060Z,1006.81
2019-02-28T07:21:27.035Z,1006.86
2019-02-28T07:22:27.041Z,1006.86
2019-02-28T07:23:30.055Z,1006.92
2019-02-28T07:24:27.005Z,1007.00
2019-02-28T07:25:26.980Z,1006.96
2019-02-28T07:26:26.976Z,1006.96
2019-02-28T07:27:29.666Z,1006.95
2019-02-28T07:28:26.973Z,1006.92
2019-02-28T07:29:26.997Z,1006.98
2019-02-28T07:30:26.929Z,1007.02
2019-02-28T07:31:26.915Z,1006.95
2019-02-28T07:32:26.954Z,1007.00
2019-02-28T07:40:24.357Z,1007.14
2019-02-28T07:47:07.512Z,1007.15
2019-02-28T07:48:07.551Z,1007.08
2019-02-28T07:49:07.486Z,1007.06
2019-02-28T07:50:07.741Z,1007.13
2019-02-28T07:51:07.433Z,1007.08
2019-02-28T07:52:07.427Z,1007.08
2019-02-28T07:53:08.792Z,1007.02
2019-02-28T07:54:07.403Z,1007.01
2019-02-28T07:55:07.391Z,1007.09
2019-02-28T07:56:07.897Z,1007.09
2019-02-28T07:57:07.369Z,1007.16
2019-02-28T07:58:07.376Z,1007.11
2019-02-28T07:59:07.353Z,1007.15
2019-02-28T08:00:07.345Z,1007.20
2019-02-28T08:01:07.343Z,1007.19
2019-02-28T08:02:07.314Z,1007.28
2019-02-28T08:03:07.346Z,1007.34
2019-02-28T08:04:07.299Z,1007.35
2019-02-28T08:05:07.275Z,1007.35
2019-02-28T08:06:07.324Z,1007.34
2019-02-28T08:07:07.253Z,1007.36
2019-02-28T08:08:07.279Z,1007.28
2019-02-28T08:09:07.239Z,1007.29
2019-02-28T08:10:07.309Z,1007.31
2019-02-28T08:11:07.293Z,1007.31
2019-02-28T08:12:07.203Z,1007.27
2019-02-28T08:13:07.193Z,1007.31
2019-02-28T08:14:09.165Z,1007.37
2019-02-28T08:15:07.187Z,1007.42
2019-02-28T08:16:07.155Z,1007.45
2019-02-28T08:17:09.072Z,1007.41
2019-02-28T08:18:07.169Z,1007.46
2019-02-28T08:19:07.147Z,1007.43
2019-02-28T08:20:07.114Z,1007.31
2019-02-28T08:21:08.748Z,1007.28
2019-02-28T08:22:07.090Z,1007.20
2019-02-28T08:23:07.081Z,1007.22
2019-02-28T08:24:07.085Z,1007.22
2019-02-28T08:25:07.809Z,1007.25
2019-02-28T08:26:07.055Z,1007.29
2019-02-28T08:27:07.048Z,1007.38
2019-02-28T08:28:07.025Z,1007.38
2019-02-28T08:29:08.305Z,1007.43
2019-02-28T08:30:07.023Z,1007.43
2019-02-28T08:31:07.002Z,1007.43
2019-02-28T08:32:08.254Z,1007.54
2019-02-28T08:33:06.996Z,1007.49
2019-02-28T08:34:06.975Z,1007.43
2019-02-28T08:35:06.951Z,1007.61
2019-02-28T08:36:11.578Z,1007.46
2019-02-28T08:37:07.940Z,1007.57
2019-02-28T08:38:07.015Z,1007.50
2019-02-28T08:39:08.820Z,1007.50
2019-02-28T08:40:06.900Z,1007.45
2019-02-28T08:41:06.917Z,1007.60
2019-02-28T08:42:06.882Z,1007.59
2019-02-28T08:43:06.858Z,1007.60
2019-02-28T08:44:07.024Z,1007.56
2019-02-28T08:45:06.841Z,1007.45
2019-02-28T08:46:10.863Z,1007.49
2019-02-28T08:47:07.871Z,1007.42
2019-02-28T08:48:06.847Z,1007.43
2019-02-28T08:49:07.393Z,1007.41
2019-02-28T08:50:06.807Z,1007.40
2019-02-28T08:51:06.779Z,1007.36
2019-02-28T08:52:06.781Z,1007.36
2019-02-28T08:53:06.782Z,1007.34
2019-02-28T08:54:06.770Z,1007.26
2019-02-28T08:55:09.164Z,1007.30
2019-02-28T08:56:06.746Z,1007.31
2019-02-28T08:57:06.729Z,1007.28
2019-02-28T08:58:06.864Z,1007.18
2019-02-28T08:59:11.761Z,1007.18
2019-02-28T09:00:07.695Z,1007.22
2019-02-28T09:01:06.703Z,1007.11
2019-02-28T09:02:06.657Z,1007.18
2019-02-28T09:03:06.647Z,1007.02
2019-02-28T09:04:06.668Z,1007.04
2019-02-28T09:05:06.803Z,1007.05
2019-02-28T09:06:07.518Z,1007.10
2019-02-28T09:07:06.620Z,1007.20
2019-02-28T09:08:06.595Z,1007.11
2019-02-28T09:09:06.614Z,1007.09
2019-02-28T09:10:11.852Z,1007.07
2019-02-28T09:11:07.562Z,1007.11
2019-02-28T09:12:06.555Z,1007.15
2019-02-28T09:13:08.599Z,1007.16
2019-02-28T09:14:06.568Z,1007.05
2019-02-28T09:15:06.519Z,1006.95
2019-02-28T09:16:06.521Z,1007.02
2019-02-28T09:17:06.490Z,1007.03
2019-02-28T09:18:07.325Z,1006.96
2019-02-28T09:19:06.505Z,1007.09
2019-02-28T09:20:07.427Z,1007.03
2019-02-28T09:21:06.449Z,1007.02
2019-02-28T09:22:06.481Z,1007.15
2019-02-28T09:23:06.461Z,1007.02
2019-02-28T09:24:09.466Z,1007.08
2019-02-28T09:25:07.527Z,1007.14
2019-02-28T09:26:06.399Z,1007.15
2019-02-28T09:27:06.393Z,1007.14
2019-02-28T09:28:06.375Z,1007.14
2019-02-28T09:29:06.405Z,1007.09
2019-02-28T09:30:06.354Z,1007.11
2019-02-28T09:31:06.343Z,1007.12
2019-02-28T09:32:06.347Z,1007.09
2019-02-28T09:33:06.324Z,1007.08
2019-02-28T09:34:06.364Z,1007.12
2019-02-28T09:35:11.989Z,1007.13
2019-02-28T09:36:07.302Z,1007.12
2019-02-28T09:37:06.284Z,1007.23
2019-02-28T09:38:08.927Z,1007.16
2019-02-28T09:39:07.282Z,1007.21
2019-02-28T09:40:06.243Z,1007.30
2019-02-28T09:41:06.272Z,1007.23
2019-02-28T09:42:06.231Z,1007.28
2019-02-28T09:43:06.221Z,1007.25
2019-02-28T09:44:07.054Z,1007.24
2019-02-28T09:45:07.649Z,1007.22
2019-02-28T09:46:06.180Z,1007.19
2019-02-28T09:47:06.183Z,1007.24
2019-02-28T09:48:06.170Z,1007.19
2019-02-28T09:49:11.824Z,1007.30
2019-02-28T09:50:07.156Z,1007.26
2019-02-28T09:51:06.122Z,1007.33
2019-02-28T09:52:07.233Z,1007.28
2019-02-28T09:53:06.110Z,1007.26
2019-02-28T09:54:06.113Z,1007.33
2019-02-28T09:55:06.128Z,1007.29
2019-02-28T09:56:08.884Z,1007.36
2019-02-28T09:57:06.072Z,1007.40
2019-02-28T09:58:06.054Z,1007.40
2019-02-28T09:59:06.053Z,1007.44
2019-02-28T10:00:06.053Z,1007.42
2019-02-28T10:01:06.021Z,1007.38
2019-02-28T10:02:08.355Z,1007.39
2019-02-28T10:03:06.854Z,1007.43
2019-02-28T10:04:05.989Z,1007.35
2019-02-28T10:05:06.672Z,1007.34
2019-02-28T10:06:06.006Z,1007.34
2019-02-28T10:07:05.965Z,1007.44
2019-02-28T10:08:07.106Z,1007.37
2019-02-28T10:09:08.741Z,1007.43
2019-02-28T10:10:05.923Z,1007.38
2019-02-28T10:11:05.965Z,1007.32
2019-02-28T10:12:07.798Z,1007.32
2019-02-28T10:13:05.894Z,1007.42
2019-02-28T10:14:05.878Z,1007.28
2019-02-28T10:15:07.356Z,1007.25
2019-02-28T10:16:05.947Z,1007.24
2019-02-28T10:17:05.889Z,1007.26
2019-02-28T10:18:05.901Z,1007.35
2019-02-28T10:19:05.835Z,1007.37
2019-02-28T10:20:05.820Z,1007.44
2019-02-28T10:21:05.831Z,1007.49
2019-02-28T10:22:05.790Z,1007.58
2019-02-28T10:23:05.798Z,1007.40
2019-02-28T10:24:05.769Z,1007.46
2019-02-28T10:25:06.463Z,1007.40
2019-02-28T10:26:05.766Z,1007.38
2019-02-28T10:27:05.742Z,1007.47
2019-02-28T10:28:05.737Z,1007.56
2019-02-28T10:29:07.454Z,1007.62
2019-02-28T10:30:05.727Z,1007.56
2019-02-28T10:31:05.694Z,1007.61
2019-02-28T10:32:06.190Z,1007.52
2019-02-28T10:33:05.673Z,1007.59
2019-02-28T10:34:05.690Z,1007.54
2019-02-28T10:35:05.656Z,1007.58
2019-02-28T10:36:05.635Z,1007.54
2019-02-28T10:37:05.654Z,1007.70
2019-02-28T10:38:05.633Z,1007.59
2019-02-28T10:39:05.857Z,1007.55
2019-02-28T10:40:05.603Z,1007.52
2019-02-28T10:41:05.578Z,1007.60
2019-02-28T10:42:06.112Z,1007.69
2019-02-28T10:43:05.562Z,1007.57
2019-02-28T10:44:05.585Z,1007.61
2019-02-28T10:45:06.544Z,1007.53
2019-02-28T10:46:05.542Z,1007.47
2019-02-28T10:47:05.540Z,1007.42
2019-02-28T10:48:05.505Z,1007.40
2019-02-28T10:49:05.539Z,1007.42
2019-02-28T10:50:05.524Z,1007.41
2019-02-28T10:51:12.862Z,1007.43
2019-02-28T10:52:06.462Z,1007.43
2019-02-28T10:53:06.167Z,1007.44
2019-02-28T10:54:05.438Z,1007.42
2019-02-28T10:55:05.582Z,1007.37
2019-02-28T10:56:05.433Z,1007.33
2019-02-28T10:57:06.141Z,1007.34
2019-02-28T10:58:05.404Z,1007.24
2019-02-28T10:59:05.383Z,1007.22
2019-02-28T11:00:05.408Z,1007.17
2019-02-28T11:01:08.646Z,1007.18
2019-02-28T11:02:05.400Z,1007.11
2019-02-28T11:03:05.362Z,1007.19
2019-02-28T11:04:07.430Z,1007.15
2019-02-28T11:05:05.318Z,1007.16
2019-02-28T11:06:05.311Z,1007.19
2019-02-28T11:07:05.357Z,1007.27
2019-02-28T11:08:05.290Z,1007.18
2019-02-28T11:09:05.296Z,1007.14
2019-02-28T11:10:05.289Z,1007.15
2019-02-28T11:11:07.384Z,1007.20
2019-02-28T11:12:06.294Z,1007.27
2019-02-28T11:13:05.236Z,1007.22
2019-02-28T11:14:05.261Z,1007.24
2019-02-28T11:15:05.252Z,1007.28
2019-02-28T11:16:05.200Z,1007.34
2019-02-28T11:17:08.941Z,1007.31
2019-02-28T11:18:09.620Z,1007.36
2019-02-28T11:19:05.198Z,1007.36
2019-02-28T11:20:05.183Z,1007.41
2019-02-28T11:21:05.147Z,1007.49
2019-02-28T11:22:05.974Z,1007.47
2019-02-28T11:23:05.130Z,1007.44
2019-02-28T11:24:05.112Z,1007.43
2019-02-28T11:25:05.119Z,1007.39
2019-02-28T11:26:06.500Z,1007.49
2019-02-28T11:27:05.080Z,1007.41
2019-02-28T11:28:05.087Z,1007.47
2019-02-28T11:29:05.074Z,1007.61
2019-02-28T11:30:07.374Z,1007.51
2019-02-28T11:31:05.045Z,1007.51
2019-02-28T11:32:05.033Z,1007.53
2019-02-28T11:33:05.036Z,1007.63
2019-02-28T11:34:05.004Z,1007.61
2019-02-28T11:35:04.992Z,1007.55
2019-02-28T11:36:04.987Z,1007.65
2019-02-28T11:37:05.446Z,1007.65
2019-02-28T11:38:05.159Z,1007.57
2019-02-28T11:39:04.977Z,1007.52
2019-02-28T11:40:05.394Z,1007.51
2019-02-28T11:41:04.931Z,1007.55
2019-02-28T11:42:04.928Z,1007.55
2019-02-28T11:43:04.944Z,1007.47
2019-02-28T11:44:04.903Z,1007.53
2019-02-28T11:45:04.886Z,1007.68
2019-02-28T11:46:04.881Z,1007.57
2019-02-28T11:47:04.858Z,1007.59
2019-02-28T11:48:04.896Z,1007.70
2019-02-28T11:49:04.836Z,1007.65
2019-02-28T11:50:07.662Z,1007.75
2019-02-28T11:51:04.843Z,1007.52
2019-02-28T11:52:04.822Z,1007.58
2019-02-28T11:53:05.989Z,1007.52
2019-02-28T11:54:04.810Z,1007.61
2019-02-28T11:55:04.771Z,1007.53
2019-02-28T11:56:04.763Z,1007.53
2019-02-28T11:57:06.819Z,1007.63
2019-02-28T11:58:04.751Z,1007.49
2019-02-28T11:59:04.756Z,1007.53
2019-02-28T12:00:04.730Z,1007.55
2019-02-28T12:01:09.961Z,1007.46
2019-02-28T12:02:05.711Z,1007.49
2019-02-28T12:03:05.546Z,1007.46
2019-02-28T12:04:04.698Z,1007.45
2019-02-28T12:05:04.676Z,1007.51
2019-02-28T12:06:06.909Z,1007.49
2019-02-28T12:07:04.646Z,1007.51
2019-02-28T12:08:09.285Z,1007.47
2019-02-28T12:09:05.654Z,1007.49
2019-02-28T12:10:04.618Z,1007.50
2019-02-28T12:11:04.612Z,1007.44
2019-02-28T12:12:07.371Z,1007.45
2019-02-28T12:13:05.589Z,1007.39
2019-02-28T12:14:06.277Z,1007.47
2019-02-28T12:15:06.085Z,1007.41
2019-02-28T12:16:04.546Z,1007.39
2019-02-28T12:17:04.550Z,1007.42
2019-02-28T12:18:04.909Z,1007.36
2019-02-28T12:19:04.548Z,1007.38
2019-02-28T12:20:04.507Z,1007.47
2019-02-28T12:21:05.038Z,1007.46
2019-02-28T12:22:04.492Z,1007.39
2019-02-28T12:23:04.492Z,1007.33
2019-02-28T12:24:04.499Z,1007.33
2019-02-28T12:25:07.313Z,1007.41
2019-02-28T12:26:04.456Z,1007.42
2019-02-28T12:27:04.422Z,1007.34
2019-02-28T12:28:06.543Z,1007.44